sensor_id;sensor_type;location;lat;lon;timestamp;pressure;altitude;pressure_sealevel;temperature;humidity
9325;BME280;4701;51.566;6.776;2023-02-13T07:02:47;103369.44;;;5.39;100.00
9325;BME280;4701;51.566;6.776;2023-02-13T07:04:49;103373.00;;;5.40;100.00
9325;BME280;4701;51.566;6.776;2023-02-13T07:06:53;103376.53;;;5.40;100.00
9325;BME280;4701;51.566;6.776;2023-02-13T07:08:56;103375.69;;;5.40;100.00
9325;BME280;4701;51.566;6.776;2023-02-13T07:10:58;103375.69;;;5.40;100.00
9325;BME280;4701;51.566;6.776;2023-02-13T07:12:59;103378.25;;;5.41;100.00
9325;BME280;4701;51.566;6.776;2023-02-13T07:15:01;103382.63;;;5.42;100.00
9325;BME280;4701;51.566;6.776;2023-02-13T07:17:03;103381.94;;;5.40;100.00
9325;BME280;4701;51.566;6.776;2023-02-13T07:19:06;103383.66;;;5.41;100.00
9325;BME280;4701;51.566;6.776;2023-02-13T07:21:08;103382.81;;;5.41;100.00
9325;BME280;4701;51.566;6.776;2023-02-13T07:23:10;103381.78;;;5.42;100.00
9325;BME280;4701;51.566;6.776;2023-02-13T07:25:12;103384.50;;;5.42;100.00
9325;BME280;4701;51.566;6.776;2023-02-13T07:27:13;103383.66;;;5.41;100.00
9325;BME280;4701;51.566;6.776;2023-02-13T07:29:15;103388.03;;;5.42;100.00
9325;BME280;4701;51.566;6.776;2023-02-13T07:31:17;103392.44;;;5.43;100.00
9325;BME280;4701;51.566;6.776;2023-02-13T07:33:19;103394.16;;;5.44;100.00
9325;BME280;4701;51.566;6.776;2023-02-13T07:35:22;103392.44;;;5.43;100.00
9325;BME280;4701;51.566;6.776;2023-02-13T07:37:26;103390.22;;;5.47;100.00
9325;BME280;4701;51.566;6.776;2023-02-13T07:39:28;103396.31;;;5.49;100.00
9325;BME280;4701;51.566;6.776;2023-02-13T07:41:31;103398.88;;;5.50;100.00
9325;BME280;4701;51.566;6.776;2023-02-13T07:43:32;103402.25;;;5.52;100.00
9325;BME280;4701;51.566;6.776;2023-02-13T07:45:34;103395.81;;;5.53;100.00
9325;BME280;4701;51.566;6.776;2023-02-13T07:47:36;103393.94;;;5.54;100.00
9325;BME280;4701;51.566;6.776;2023-02-13T07:49:38;103399.72;;;5.59;100.00
9325;BME280;4701;51.566;6.776;2023-02-13T07:51:41;103397.50;;;5.62;100.00
9325;BME280;4701;51.566;6.776;2023-02-13T07:53:43;103409.69;;;5.66;100.00
9325;BME280;4701;51.566;6.776;2023-02-13T07:55:45;103406.97;;;5.66;100.00
9325;BME280;4701;51.566;6.776;2023-02-13T07:57:47;103414.94;;;5.68;100.00
9325;BME280;4701;51.566;6.776;2023-02-13T07:59:49;103401.72;;;5.73;100.00
9325;BME280;4701;51.566;6.776;2023-02-13T08:01:50;103406.44;;;5.79;100.00
9325;BME280;4701;51.566;6.776;2023-02-13T08:03:52;103401.56;;;5.83;100.00
9325;BME280;4701;51.566;6.776;2023-02-13T08:05:54;103403.09;;;5.85;100.00
9325;BME280;4701;51.566;6.776;2023-02-13T08:07:57;103404.28;;;5.91;100.00
9325;BME280;4701;51.566;6.776;2023-02-13T08:09:59;103411.91;;;5.95;100.00
9325;BME280;4701;51.566;6.776;2023-02-13T08:12:18;103408.69;;;6.00;100.00
9325;BME280;4701;51.566;6.776;2023-02-13T08:14:21;103407.31;;;6.04;100.00
9325;BME280;4701;51.566;6.776;2023-02-13T08:16:23;103415.59;;;6.11;100.00
9325;BME280;4701;51.566;6.776;2023-02-13T08:18:24;103405.63;;;6.11;100.00
9325;BME280;4701;51.566;6.776;2023-02-13T08:20:26;103414.91;;;6.17;100.00
9325;BME280;4701;51.566;6.776;2023-02-13T08:22:28;103414.38;;;6.21;100.00
9325;BME280;4701;51.566;6.776;2023-02-13T08:24:31;103419.81;;;6.29;100.00
9325;BME280;4701;51.566;6.776;2023-02-13T08:26:33;103413.16;;;6.40;100.00
9325;BME280;4701;51.566;6.776;2023-02-13T08:28:35;103410.41;;;6.48;100.00
9325;BME280;4701;51.566;6.776;2023-02-13T08:30:37;103409.91;;;6.53;100.00
9325;BME280;4701;51.566;6.776;2023-02-13T08:32:40;103415.47;;;6.59;100.00
9325;BME280;4701;51.566;6.776;2023-02-13T08:34:41;103415.75;;;6.64;100.00
9325;BME280;4701;51.566;6.776;2023-02-13T08:36:43;103419.66;;;6.70;100.00
9325;BME280;4701;51.566;6.776;2023-02-13T08:38:45;103417.94;;;6.77;100.00
9325;BME280;4701;51.566;6.776;2023-02-13T08:40:48;103419.56;;;6.86;100.00
9325;BME280;4701;51.566;6.776;2023-02-13T08:42:50;103425.13;;;6.93;100.00
9325;BME280;4701;51.566;6.776;2023-02-13T08:44:52;103411.88;;;6.98;100.00
9325;BME280;4701;51.566;6.776;2023-02-13T08:46:54;103415.44;;;6.98;100.00
9325;BME280;4701;51.566;6.776;2023-02-13T08:48:56;103420.81;;;7.06;100.00
9325;BME280;4701;51.566;6.776;2023-02-13T08:50:58;103410.28;;;7.11;100.00
9325;BME280;4701;51.566;6.776;2023-02-13T08:53:00;103415.16;;;7.16;100.00
9325;BME280;4701;51.566;6.776;2023-02-13T08:55:01;103409.38;;;7.19;100.00
9325;BME280;4701;51.566;6.776;2023-02-13T08:57:05;103421.88;;;7.28;100.00
9325;BME280;4701;51.566;6.776;2023-02-13T08:59:08;103429.94;;;7.36;100.00
9325;BME280;4701;51.566;6.776;2023-02-13T09:01:09;103417.19;;;7.45;100.00
9325;BME280;4701;51.566;6.776;2023-02-13T09:03:11;103424.56;;;7.51;100.00
9325;BME280;4701;51.566;6.776;2023-02-13T09:05:13;103416.38;;;7.59;100.00
9325;BME280;4701;51.566;6.776;2023-02-13T09:07:15;103420.44;;;7.63;99.60
9325;BME280;4701;51.566;6.776;2023-02-13T09:09:16;103421.38;;;7.70;98.67
9325;BME280;4701;51.566;6.776;2023-02-13T09:11:18;103414.00;;;7.79;98.22
9325;BME280;4701;51.566;6.776;2023-02-13T09:13:24;103412.91;;;7.88;97.15
9325;BME280;4701;51.566;6.776;2023-02-13T09:15:26;103412.84;;;7.96;96.80
9325;BME280;4701;51.566;6.776;2023-02-13T09:17:27;103412.25;;;8.01;96.10
9325;BME280;4701;51.566;6.776;2023-02-13T09:19:29;103412.75;;;8.04;95.80
9325;BME280;4701;51.566;6.776;2023-02-13T09:21:31;103411.91;;;8.04;95.29
9325;BME280;4701;51.566;6.776;2023-02-13T09:23:34;103414.97;;;8.01;95.44
9325;BME280;4701;51.566;6.776;2023-02-13T09:25:36;103410.56;;;7.99;94.80
9325;BME280;4701;51.566;6.776;2023-02-13T09:27:38;103410.97;;;8.11;94.06
9325;BME280;4701;51.566;6.776;2023-02-13T09:29:41;103412.41;;;8.22;93.39
9325;BME280;4701;51.566;6.776;2023-02-13T09:31:42;103413.63;;;8.34;92.72
9325;BME280;4701;51.566;6.776;2023-02-13T09:33:46;103412.31;;;8.30;92.01
9325;BME280;4701;51.566;6.776;2023-02-13T09:35:49;103414.47;;;8.34;91.63
9325;BME280;4701;51.566;6.776;2023-02-13T09:37:51;103423.59;;;8.42;91.73
9325;BME280;4701;51.566;6.776;2023-02-13T09:39:52;103423.38;;;8.43;91.52
9325;BME280;4701;51.566;6.776;2023-02-13T09:41:54;103425.75;;;8.46;91.22
9325;BME280;4701;51.566;6.776;2023-02-13T09:43:59;103409.16;;;8.56;90.20
9325;BME280;4701;51.566;6.776;2023-02-13T09:46:08;103414.31;;;8.65;89.64
9325;BME280;4701;51.566;6.776;2023-02-13T09:48:17;103415.16;;;8.66;89.12
9325;BME280;4701;51.566;6.776;2023-02-13T09:50:24;103414.75;;;8.69;89.22
9325;BME280;4701;51.566;6.776;2023-02-13T09:52:31;103416.34;;;8.78;89.46
9325;BME280;4701;51.566;6.776;2023-02-13T09:54:34;103413.31;;;8.88;88.84
9325;BME280;4701;51.566;6.776;2023-02-13T09:56:43;103418.28;;;8.99;88.87
9325;BME280;4701;51.566;6.776;2023-02-13T09:58:53;103425.84;;;9.03;87.47
9325;BME280;4701;51.566;6.776;2023-02-13T10:01:00;103416.72;;;9.11;87.29
9325;BME280;4701;51.566;6.776;2023-02-13T10:03:17;103421.44;;;9.17;87.40
9325;BME280;4701;51.566;6.776;2023-02-13T10:05:28;103409.75;;;9.23;86.38
9325;BME280;4701;51.566;6.776;2023-02-13T10:07:39;103416.06;;;9.24;85.98
9325;BME280;4701;51.566;6.776;2023-02-13T10:09:52;103413.03;;;9.33;85.57
9325;BME280;4701;51.566;6.776;2023-02-13T10:12:21;103412.22;;;9.39;85.58
9325;BME280;4701;51.566;6.776;2023-02-13T10:14:32;103413.97;;;9.47;85.49
9325;BME280;4701;51.566;6.776;2023-02-13T10:16:41;103414.63;;;9.49;85.94
9325;BME280;4701;51.566;6.776;2023-02-13T10:18:49;103414.69;;;9.56;84.75
9325;BME280;4701;51.566;6.776;2023-02-13T10:20:54;103416.50;;;9.70;83.95
9325;BME280;4701;51.566;6.776;2023-02-13T10:23:02;103413.38;;;9.73;82.78
9325;BME280;4701;51.566;6.776;2023-02-13T10:25:15;103411.31;;;9.75;83.00
9325;BME280;4701;51.566;6.776;2023-02-13T10:27:21;103409.28;;;9.83;82.91
9325;BME280;4701;51.566;6.776;2023-02-13T10:29:28;103417.31;;;9.92;81.98
9325;BME280;4701;51.566;6.776;2023-02-13T10:31:53;103413.66;;;10.06;81.59
9325;BME280;4701;51.566;6.776;2023-02-13T10:34:00;103409.19;;;10.19;81.78
9325;BME280;4701;51.566;6.776;2023-02-13T10:36:06;103414.91;;;10.31;80.52
9325;BME280;4701;51.566;6.776;2023-02-13T10:38:14;103401.03;;;10.26;80.63
9325;BME280;4701;51.566;6.776;2023-02-13T10:40:17;103406.72;;;10.31;80.31
9325;BME280;4701;51.566;6.776;2023-02-13T10:42:22;103413.66;;;10.34;80.25
9325;BME280;4701;51.566;6.776;2023-02-13T10:44:35;103405.72;;;10.39;79.67
9325;BME280;4701;51.566;6.776;2023-02-13T10:46:49;103415.25;;;10.56;79.03
9325;BME280;4701;51.566;6.776;2023-02-13T10:49:06;103410.47;;;10.65;78.40
9325;BME280;4701;51.566;6.776;2023-02-13T10:51:17;103418.06;;;10.69;77.84
9325;BME280;4701;51.566;6.776;2023-02-13T10:53:26;103410.53;;;10.71;78.10
9325;BME280;4701;51.566;6.776;2023-02-13T10:55:49;103404.81;;;10.66;77.07
9325;BME280;4701;51.566;6.776;2023-02-13T10:58:03;103395.78;;;10.66;78.24
9325;BME280;4701;51.566;6.776;2023-02-13T11:00:12;103396.91;;;10.78;77.89
9325;BME280;4701;51.566;6.776;2023-02-13T11:02:23;103392.09;;;10.80;77.25
9325;BME280;4701;51.566;6.776;2023-02-13T11:04:28;103386.47;;;10.94;76.51
9325;BME280;4701;51.566;6.776;2023-02-13T11:06:31;103387.53;;;11.00;76.48
9325;BME280;4701;51.566;6.776;2023-02-13T11:08:37;103387.31;;;11.02;76.92
9325;BME280;4701;51.566;6.776;2023-02-13T11:10:40;103382.72;;;11.15;76.96
9325;BME280;4701;51.566;6.776;2023-02-13T11:12:42;103390.31;;;11.26;76.01
9325;BME280;4701;51.566;6.776;2023-02-13T11:14:52;103383.41;;;11.37;74.57
9325;BME280;4701;51.566;6.776;2023-02-13T11:16:58;103383.00;;;11.40;75.04
9325;BME280;4701;51.566;6.776;2023-02-13T11:19:01;103377.34;;;11.55;73.19
9325;BME280;4701;51.566;6.776;2023-02-13T11:21:10;103368.94;;;11.43;72.96
9325;BME280;4701;51.566;6.776;2023-02-13T11:23:42;103367.88;;;11.44;73.83
9325;BME280;4701;51.566;6.776;2023-02-13T11:25:54;103373.16;;;11.39;74.54
9325;BME280;4701;51.566;6.776;2023-02-13T11:28:07;103355.06;;;11.58;74.74
9325;BME280;4701;51.566;6.776;2023-02-13T11:30:29;103359.31;;;11.80;74.30
9325;BME280;4701;51.566;6.776;2023-02-13T11:32:32;103354.47;;;11.75;72.82
9325;BME280;4701;51.566;6.776;2023-02-13T11:34:34;103357.00;;;11.90;72.71
9325;BME280;4701;51.566;6.776;2023-02-13T11:36:37;103349.78;;;12.09;71.86
9325;BME280;4701;51.566;6.776;2023-02-13T11:38:39;103351.25;;;12.11;70.95
9325;BME280;4701;51.566;6.776;2023-02-13T11:40:43;103346.63;;;12.12;70.75
9325;BME280;4701;51.566;6.776;2023-02-13T11:42:49;103351.69;;;12.08;70.56
9325;BME280;4701;51.566;6.776;2023-02-13T11:44:53;103350.41;;;12.18;71.80
9325;BME280;4701;51.566;6.776;2023-02-13T11:46:58;103338.59;;;12.30;70.63
9325;BME280;4701;51.566;6.776;2023-02-13T11:49:02;103340.44;;;12.43;69.95
9325;BME280;4701;51.566;6.776;2023-02-13T11:51:04;103329.97;;;12.33;71.48
9325;BME280;4701;51.566;6.776;2023-02-13T11:53:16;103322.59;;;12.40;70.97
9325;BME280;4701;51.566;6.776;2023-02-13T11:55:33;103330.16;;;12.38;70.43
9325;BME280;4701;51.566;6.776;2023-02-13T11:57:36;103325.91;;;12.49;70.22
9325;BME280;4701;51.566;6.776;2023-02-13T11:59:39;103327.59;;;12.50;70.12
9325;BME280;4701;51.566;6.776;2023-02-13T12:01:42;103327.19;;;12.84;70.12
9325;BME280;4701;51.566;6.776;2023-02-13T12:03:57;103328.91;;;13.48;70.92
9325;BME280;4701;51.566;6.776;2023-02-13T12:06:05;103329.19;;;14.26;66.78
9325;BME280;4701;51.566;6.776;2023-02-13T12:08:09;103330.00;;;15.35;64.33
9325;BME280;4701;51.566;6.776;2023-02-13T12:10:18;103319.94;;;16.45;60.22
9325;BME280;4701;51.566;6.776;2023-02-13T12:12:27;103317.69;;;16.82;55.04
9325;BME280;4701;51.566;6.776;2023-02-13T12:14:34;103315.00;;;17.16;54.73
9325;BME280;4701;51.566;6.776;2023-02-13T12:16:40;103320.84;;;17.36;55.55
9325;BME280;4701;51.566;6.776;2023-02-13T12:18:45;103316.94;;;17.49;53.25
9325;BME280;4701;51.566;6.776;2023-02-13T12:20:56;103309.69;;;17.59;53.39
9325;BME280;4701;51.566;6.776;2023-02-13T12:23:06;103306.94;;;17.43;53.16
9325;BME280;4701;51.566;6.776;2023-02-13T12:25:47;103307.03;;;17.02;53.47
9325;BME280;4701;51.566;6.776;2023-02-13T12:31:04;103301.91;;;18.77;50.47
9325;BME280;4701;51.566;6.776;2023-02-13T12:33:23;103291.16;;;20.28;45.91
9325;BME280;4701;51.566;6.776;2023-02-13T12:35:39;103294.22;;;21.25;44.41
9325;BME280;4701;51.566;6.776;2023-02-13T12:37:56;103284.47;;;21.68;43.31
9325;BME280;4701;51.566;6.776;2023-02-13T12:40:13;103277.00;;;21.38;41.76
9325;BME280;4701;51.566;6.776;2023-02-13T12:42:36;103275.59;;;21.05;41.36
9325;BME280;4701;51.566;6.776;2023-02-13T12:44:57;103272.84;;;21.30;41.80
9325;BME280;4701;51.566;6.776;2023-02-13T12:47:12;103266.91;;;21.87;40.60
9325;BME280;4701;51.566;6.776;2023-02-13T12:51:47;103255.19;;;24.38;32.98
9325;BME280;4701;51.566;6.776;2023-02-13T12:54:06;103255.50;;;24.56;32.93
9325;BME280;4701;51.566;6.776;2023-02-13T12:56:29;103253.47;;;25.31;32.39
9325;BME280;4701;51.566;6.776;2023-02-13T12:58:50;103251.06;;;26.25;31.03
9325;BME280;4701;51.566;6.776;2023-02-13T13:01:02;103242.03;;;28.24;28.19
9325;BME280;4701;51.566;6.776;2023-02-13T13:05:49;103231.94;;;28.14;27.55
9325;BME280;4701;51.566;6.776;2023-02-13T13:08:05;103237.78;;;27.25;28.21
9325;BME280;4701;51.566;6.776;2023-02-13T13:10:34;103236.72;;;27.74;28.61
9325;BME280;4701;51.566;6.776;2023-02-13T13:12:44;103237.31;;;28.02;27.26
9325;BME280;4701;51.566;6.776;2023-02-13T13:14:54;103230.16;;;27.79;27.79
9325;BME280;4701;51.566;6.776;2023-02-13T13:17:04;103228.47;;;26.49;28.05
9325;BME280;4701;51.566;6.776;2023-02-13T13:19:15;103226.94;;;26.16;29.80
9325;BME280;4701;51.566;6.776;2023-02-13T13:21:28;103232.75;;;26.69;28.93
9325;BME280;4701;51.566;6.776;2023-02-13T13:23:32;103217.88;;;26.60;29.49
9325;BME280;4701;51.566;6.776;2023-02-13T13:25:42;103220.28;;;26.75;28.46
9325;BME280;4701;51.566;6.776;2023-02-13T13:27:50;103222.53;;;26.87;28.36
9325;BME280;4701;51.566;6.776;2023-02-13T13:29:57;103212.69;;;27.11;27.54
9325;BME280;4701;51.566;6.776;2023-02-13T13:32:01;103210.81;;;27.29;27.65
9325;BME280;4701;51.566;6.776;2023-02-13T13:34:06;103212.16;;;27.63;27.53
9325;BME280;4701;51.566;6.776;2023-02-13T13:36:15;103210.97;;;27.33;27.65
9325;BME280;4701;51.566;6.776;2023-02-13T13:38:24;103209.41;;;26.51;28.59
9325;BME280;4701;51.566;6.776;2023-02-13T13:40:38;103205.53;;;25.56;29.26
9325;BME280;4701;51.566;6.776;2023-02-13T13:42:46;103200.50;;;25.12;30.69
9325;BME280;4701;51.566;6.776;2023-02-13T13:45:12;103205.66;;;24.11;33.20
9325;BME280;4701;51.566;6.776;2023-02-13T13:47:32;103206.78;;;23.39;34.80
9325;BME280;4701;51.566;6.776;2023-02-13T13:49:47;103195.25;;;22.54;35.28
9325;BME280;4701;51.566;6.776;2023-02-13T13:51:50;103190.84;;;22.87;34.83
9325;BME280;4701;51.566;6.776;2023-02-13T13:54:18;103191.97;;;23.44;32.62
9325;BME280;4701;51.566;6.776;2023-02-13T13:56:20;103194.84;;;23.62;32.97
9325;BME280;4701;51.566;6.776;2023-02-13T13:58:24;103187.03;;;23.88;32.45
9325;BME280;4701;51.566;6.776;2023-02-13T14:00:33;103177.50;;;24.50;31.71
9325;BME280;4701;51.566;6.776;2023-02-13T14:02:43;103191.13;;;25.36;30.10
9325;BME280;4701;51.566;6.776;2023-02-13T14:05:00;103179.78;;;26.72;28.51
9325;BME280;4701;51.566;6.776;2023-02-13T14:07:22;103187.72;;;27.55;27.13
9325;BME280;4701;51.566;6.776;2023-02-13T14:09:42;103179.50;;;26.96;27.27
9325;BME280;4701;51.566;6.776;2023-02-13T14:11:44;103176.03;;;26.19;28.26
9325;BME280;4701;51.566;6.776;2023-02-13T14:13:46;103173.69;;;25.57;29.35
9325;BME280;4701;51.566;6.776;2023-02-13T14:15:52;103164.56;;;25.24;29.79
9325;BME280;4701;51.566;6.776;2023-02-13T14:17:54;103166.22;;;25.53;29.72
9325;BME280;4701;51.566;6.776;2023-02-13T14:19:56;103161.59;;;25.62;28.90
9325;BME280;4701;51.566;6.776;2023-02-13T14:22:30;103164.03;;;25.22;29.25
9325;BME280;4701;51.566;6.776;2023-02-13T14:24:33;103157.50;;;25.27;30.35
9325;BME280;4701;51.566;6.776;2023-02-13T14:26:37;103157.50;;;24.48;30.68
9325;BME280;4701;51.566;6.776;2023-02-13T14:28:39;103151.44;;;24.41;31.05
9325;BME280;4701;51.566;6.776;2023-02-13T14:30:42;103143.47;;;24.35;30.92
9325;BME280;4701;51.566;6.776;2023-02-13T14:32:45;103157.75;;;23.67;31.75
9325;BME280;4701;51.566;6.776;2023-02-13T14:34:55;103158.81;;;22.94;33.33
9325;BME280;4701;51.566;6.776;2023-02-13T14:37:06;103153.56;;;22.54;33.84
9325;BME280;4701;51.566;6.776;2023-02-13T14:39:21;103156.34;;;22.10;34.42
9325;BME280;4701;51.566;6.776;2023-02-13T14:41:44;103146.28;;;21.55;35.13
9325;BME280;4701;51.566;6.776;2023-02-13T14:43:57;103157.72;;;21.38;35.81
9325;BME280;4701;51.566;6.776;2023-02-13T14:46:05;103149.72;;;21.26;36.04
9325;BME280;4701;51.566;6.776;2023-02-13T14:48:12;103146.09;;;21.21;35.81
9325;BME280;4701;51.566;6.776;2023-02-13T14:50:18;103140.88;;;21.88;35.58
9325;BME280;4701;51.566;6.776;2023-02-13T14:52:24;103141.56;;;22.92;33.69
9325;BME280;4701;51.566;6.776;2023-02-13T14:54:31;103132.75;;;23.38;32.51
9325;BME280;4701;51.566;6.776;2023-02-13T14:56:36;103136.72;;;23.80;31.78
9325;BME280;4701;51.566;6.776;2023-02-13T14:58:48;103135.97;;;23.50;32.20
9325;BME280;4701;51.566;6.776;2023-02-13T15:03:45;103131.59;;;22.13;34.54
9325;BME280;4701;51.566;6.776;2023-02-13T15:05:56;103130.63;;;21.84;35.92
9325;BME280;4701;51.566;6.776;2023-02-13T15:08:06;103126.00;;;21.64;36.33
9325;BME280;4701;51.566;6.776;2023-02-13T15:10:32;103129.88;;;21.63;35.82
9325;BME280;4701;51.566;6.776;2023-02-13T15:12:37;103129.00;;;21.73;35.29
9325;BME280;4701;51.566;6.776;2023-02-13T15:14:38;103133.88;;;21.96;34.85
9325;BME280;4701;51.566;6.776;2023-02-13T15:16:40;103136.63;;;22.11;34.51
9325;BME280;4701;51.566;6.776;2023-02-13T15:18:48;103134.31;;;22.62;33.65
9325;BME280;4701;51.566;6.776;2023-02-13T15:20:53;103135.31;;;22.72;33.31
9325;BME280;4701;51.566;6.776;2023-02-13T15:22:57;103135.94;;;22.63;33.27
9325;BME280;4701;51.566;6.776;2023-02-13T15:25:03;103135.47;;;22.90;33.28
9325;BME280;4701;51.566;6.776;2023-02-13T15:27:06;103140.13;;;23.24;32.82
9325;BME280;4701;51.566;6.776;2023-02-13T15:29:18;103131.75;;;23.29;32.88
9325;BME280;4701;51.566;6.776;2023-02-13T15:31:22;103140.16;;;22.61;34.10
9325;BME280;4701;51.566;6.776;2023-02-13T15:33:26;103132.94;;;21.67;35.71
9325;BME280;4701;51.566;6.776;2023-02-13T15:35:31;103141.94;;;21.03;37.18
9325;BME280;4701;51.566;6.776;2023-02-13T15:37:33;103137.56;;;20.66;38.21
9325;BME280;4701;51.566;6.776;2023-02-13T15:39:35;103138.34;;;20.36;39.50
9325;BME280;4701;51.566;6.776;2023-02-13T15:41:38;103139.94;;;20.12;39.63
9325;BME280;4701;51.566;6.776;2023-02-13T15:43:43;103138.41;;;19.74;40.21
9325;BME280;4701;51.566;6.776;2023-02-13T15:45:46;103130.44;;;19.31;41.28
9325;BME280;4701;51.566;6.776;2023-02-13T15:47:48;103137.91;;;18.88;42.19
9325;BME280;4701;51.566;6.776;2023-02-13T15:49:51;103134.38;;;18.66;42.83
9325;BME280;4701;51.566;6.776;2023-02-13T15:52:07;103135.03;;;18.19;43.98
9325;BME280;4701;51.566;6.776;2023-02-13T15:54:22;103132.63;;;18.01;44.51
9325;BME280;4701;51.566;6.776;2023-02-13T15:56:24;103135.28;;;18.18;44.34
9325;BME280;4701;51.566;6.776;2023-02-13T15:58:31;103131.94;;;18.42;43.59
9325;BME280;4701;51.566;6.776;2023-02-13T16:00:36;103128.31;;;18.37;43.95
9325;BME280;4701;51.566;6.776;2023-02-13T16:02:42;103128.03;;;18.38;44.05
9325;BME280;4701;51.566;6.776;2023-02-13T16:04:49;103126.00;;;18.02;44.34
9325;BME280;4701;51.566;6.776;2023-02-13T16:06:53;103119.91;;;17.78;45.21
9325;BME280;4701;51.566;6.776;2023-02-13T16:09:00;103125.06;;;17.69;45.38
9325;BME280;4701;51.566;6.776;2023-02-13T16:11:21;103121.19;;;17.49;45.71
9325;BME280;4701;51.566;6.776;2023-02-13T16:13:27;103114.88;;;17.31;46.29
9325;BME280;4701;51.566;6.776;2023-02-13T16:15:30;103123.03;;;17.05;46.89
9325;BME280;4701;51.566;6.776;2023-02-13T16:17:35;103124.91;;;16.82;47.32
9325;BME280;4701;51.566;6.776;2023-02-13T16:19:43;103123.78;;;16.50;47.97
9325;BME280;4701;51.566;6.776;2023-02-13T16:21:47;103122.78;;;16.11;49.00
9325;BME280;4701;51.566;6.776;2023-02-13T16:24:01;103125.56;;;15.59;50.15
9325;BME280;4701;51.566;6.776;2023-02-13T16:26:06;103117.75;;;15.04;51.70
9325;BME280;4701;51.566;6.776;2023-02-13T16:28:16;103119.97;;;14.61;52.89
9325;BME280;4701;51.566;6.776;2023-02-13T16:30:28;103124.22;;;14.15;54.69
9325;BME280;4701;51.566;6.776;2023-02-13T16:32:32;103123.63;;;13.83;55.52
9325;BME280;4701;51.566;6.776;2023-02-13T16:34:37;103119.59;;;13.49;56.25
9325;BME280;4701;51.566;6.776;2023-02-13T16:36:39;103121.19;;;13.20;57.67
9325;BME280;4701;51.566;6.776;2023-02-13T16:38:41;103117.06;;;12.86;58.98
9325;BME280;4701;51.566;6.776;2023-02-13T16:40:51;103118.59;;;12.58;60.22
9325;BME280;4701;51.566;6.776;2023-02-13T16:45:36;103125.63;;;12.09;62.64
9325;BME280;4701;51.566;6.776;2023-02-13T16:47:45;103129.31;;;11.90;63.52
9325;BME280;4701;51.566;6.776;2023-02-13T16:49:50;103133.16;;;11.75;64.41
9325;BME280;4701;51.566;6.776;2023-02-13T16:51:56;103131.50;;;11.61;65.26
9325;BME280;4701;51.566;6.776;2023-02-13T16:54:02;103129.69;;;11.35;66.24
9325;BME280;4701;51.566;6.776;2023-02-13T16:56:07;103136.44;;;11.20;67.76
9325;BME280;4701;51.566;6.776;2023-02-13T16:58:12;103138.97;;;11.08;68.28
9325;BME280;4701;51.566;6.776;2023-02-13T17:02:57;103144.47;;;10.88;69.64
9325;BME280;4701;51.566;6.776;2023-02-13T17:05:14;103138.38;;;10.80;70.51
9325;BME280;4701;51.566;6.776;2023-02-13T17:07:18;103150.56;;;10.71;71.54
9325;BME280;4701;51.566;6.776;2023-02-13T17:09:21;103149.91;;;10.62;70.84
9325;BME280;4701;51.566;6.776;2023-02-13T17:11:26;103148.44;;;10.53;70.89
9325;BME280;4701;51.566;6.776;2023-02-13T17:13:28;103157.00;;;10.43;70.96
9325;BME280;4701;51.566;6.776;2023-02-13T17:15:30;103167.66;;;10.32;71.41
9325;BME280;4701;51.566;6.776;2023-02-13T17:17:32;103167.22;;;10.21;71.32
9325;BME280;4701;51.566;6.776;2023-02-13T17:19:34;103163.81;;;10.13;71.86
9325;BME280;4701;51.566;6.776;2023-02-13T17:21:39;103163.38;;;10.03;72.24
9325;BME280;4701;51.566;6.776;2023-02-13T17:23:41;103171.94;;;9.93;73.03
9325;BME280;4701;51.566;6.776;2023-02-13T17:25:43;103172.09;;;9.85;73.29
9325;BME280;4701;51.566;6.776;2023-02-13T17:27:49;103176.06;;;9.76;73.45
9325;BME280;4701;51.566;6.776;2023-02-13T17:29:51;103179.56;;;9.70;74.21
9325;BME280;4701;51.566;6.776;2023-02-13T17:31:54;103177.84;;;9.62;74.56
9325;BME280;4701;51.566;6.776;2023-02-13T17:33:56;103184.94;;;9.57;74.91
9325;BME280;4701;51.566;6.776;2023-02-13T17:35:58;103188.63;;;9.42;75.00
9325;BME280;4701;51.566;6.776;2023-02-13T17:38:00;103191.94;;;9.38;75.90
9325;BME280;4701;51.566;6.776;2023-02-13T17:40:02;103188.53;;;9.29;76.26
9325;BME280;4701;51.566;6.776;2023-02-13T17:42:03;103194.78;;;9.23;76.96
9325;BME280;4701;51.566;6.776;2023-02-13T17:44:10;103189.09;;;9.18;76.84
9325;BME280;4701;51.566;6.776;2023-02-13T17:46:12;103191.31;;;9.08;77.45
9325;BME280;4701;51.566;6.776;2023-02-13T17:48:16;103185.00;;;9.01;77.87
9325;BME280;4701;51.566;6.776;2023-02-13T17:50:18;103195.78;;;8.94;78.02
9325;BME280;4701;51.566;6.776;2023-02-13T17:52:26;103194.72;;;8.89;78.45
9325;BME280;4701;51.566;6.776;2023-02-13T17:54:28;103193.63;;;8.83;79.48
9325;BME280;4701;51.566;6.776;2023-02-13T17:56:32;103186.22;;;8.77;79.48
9325;BME280;4701;51.566;6.776;2023-02-13T17:58:34;103188.50;;;8.73;79.63
9325;BME280;4701;51.566;6.776;2023-02-13T18:00:37;103189.50;;;8.66;80.47
9325;BME280;4701;51.566;6.776;2023-02-13T18:02:38;103192.78;;;8.61;80.56
9325;BME280;4701;51.566;6.776;2023-02-13T18:04:41;103191.69;;;8.56;80.59
9325;BME280;4701;51.566;6.776;2023-02-13T18:06:43;103191.16;;;8.46;80.27
9325;BME280;4701;51.566;6.776;2023-02-13T18:08:45;103187.53;;;8.39;80.66
9325;BME280;4701;51.566;6.776;2023-02-13T18:10:47;103188.66;;;8.29;81.64
9325;BME280;4701;51.566;6.776;2023-02-13T18:12:50;103191.31;;;8.23;81.43
9325;BME280;4701;51.566;6.776;2023-02-13T18:14:53;103187.19;;;8.12;82.17
9325;BME280;4701;51.566;6.776;2023-02-13T18:16:56;103189.66;;;8.07;82.63
9325;BME280;4701;51.566;6.776;2023-02-13T18:18:58;103188.53;;;8.02;83.17
9325;BME280;4701;51.566;6.776;2023-02-13T18:21:00;103188.25;;;7.96;83.29
9325;BME280;4701;51.566;6.776;2023-02-13T18:23:02;103178.34;;;7.89;83.67
9325;BME280;4701;51.566;6.776;2023-02-13T18:25:11;103187.81;;;7.78;83.84
9325;BME280;4701;51.566;6.776;2023-02-13T18:27:13;103188.75;;;7.71;83.98
9325;BME280;4701;51.566;6.776;2023-02-13T18:29:15;103192.25;;;7.65;84.58
9325;BME280;4701;51.566;6.776;2023-02-13T18:31:17;103196.34;;;7.60;84.96
9325;BME280;4701;51.566;6.776;2023-02-13T18:33:20;103191.38;;;7.49;84.66
9325;BME280;4701;51.566;6.776;2023-02-13T18:35:22;103197.91;;;7.40;85.65
9325;BME280;4701;51.566;6.776;2023-02-13T18:37:24;103188.19;;;7.31;86.31
9325;BME280;4701;51.566;6.776;2023-02-13T18:39:27;103189.78;;;7.26;86.92